Time;durP1;ratioP1;P1;durP2;ratioP2;P2;SDS_P1;SDS_P2;PMS_P1;PMS_P2;Temp;Humidity;BMP_temperature;BMP_pressure;BME280_temperature;BME280_humidity;BME280_pressure;Samples;Min_cycle;Max_cycle;Signal;HPM_P1;HPM_P2
2021/10/26 00:01:36;;;;;;;15.80;12.95;;;16.20;91.00;;;;;;4174072;28;20148;-62
2021/10/26 00:03:59;;;;;;;15.82;13.95;;;16.20;91.00;;;;;;4174305;28;20041;-62
2021/10/26 00:06:22;;;;;;;14.50;13.20;;;16.20;91.00;;;;;;4174605;28;20056;-62
2021/10/26 00:08:44;;;;;;;13.85;12.45;;;16.20;91.00;;;;;;4157833;28;20476;-62
2021/10/26 00:11:06;;;;;;;8.23;7.50;;;16.10;91.00;;;;;;4156729;28;20049;-62
2021/10/26 00:13:28;;;;;;;8.73;7.32;;;16.20;91.00;;;;;;4158005;28;20072;-62
2021/10/26 00:15:51;;;;;;;7.05;6.38;;;16.10;91.00;;;;;;4157772;28;20121;-62
2021/10/26 00:18:13;;;;;;;5.78;5.38;;;16.10;90.90;;;;;;4157842;28;20530;-62
2021/10/26 00:20:35;;;;;;;4.78;4.38;;;16.20;91.00;;;;;;4173049;28;20053;-62
2021/10/26 00:22:59;;;;;;;4.50;4.18;;;16.20;91.00;;;;;;4173522;28;20052;-62
2021/10/26 00:25:21;;;;;;;5.07;4.35;;;16.10;91.00;;;;;;4174329;28;20144;-62
2021/10/26 00:27:43;;;;;;;3.67;3.35;;;16.10;91.00;;;;;;4174024;28;20041;-62
2021/10/26 00:30:06;;;;;;;3.70;3.20;;;16.10;91.00;;;;;;4173936;28;20041;-62
2021/10/26 00:32:29;;;;;;;4.07;3.08;;;16.10;91.00;;;;;;4174226;28;20049;-62
2021/10/26 00:34:51;;;;;;;3.28;3.08;;;16.10;91.40;;;;;;4174471;28;20126;-62
2021/10/26 00:37:13;;;;;;;3.60;3.40;;;16.10;91.00;;;;;;4172544;28;20041;-62
2021/10/26 00:39:36;;;;;;;3.55;3.35;;;16.10;91.00;;;;;;4173795;28;20064;-62
2021/10/26 00:42:04;;;;;;;4.43;3.97;;;16.10;91.00;;;;;;4173679;28;20115;-62
2021/10/26 00:44:29;;;;;;;4.95;4.55;;;16.10;91.00;;;;;;4172607;28;20045;-62
2021/10/26 00:46:55;;;;;;;5.38;4.85;;;16.10;91.00;;;;;;4174244;28;20053;-63
2021/10/26 00:49:17;;;;;;;5.68;5.28;;;16.10;90.90;;;;;;4173923;28;20544;-63
2021/10/26 00:51:41;;;;;;;5.97;5.47;;;16.10;91.00;;;;;;4172685;28;20076;-62
2021/10/26 00:54:05;;;;;;;6.13;5.07;;;16.10;91.00;;;;;;4188953;28;20048;-62
2021/10/26 00:56:34;;;;;;;6.85;5.80;;;16.10;91.40;;;;;;4189301;28;20048;-62
2021/10/26 00:58:57;;;;;;;5.63;5.18;;;16.10;90.90;;;;;;4183530;28;20136;-62
2021/10/26 01:01:20;;;;;;;6.25;5.38;;;16.10;90.90;;;;;;4172609;28;20048;-62
2021/10/26 01:03:42;;;;;;;5.30;4.90;;;16.10;90.90;;;;;;4174756;28;20097;-62
2021/10/26 01:06:05;;;;;;;5.93;5.38;;;16.10;90.90;;;;;;4175299;28;20049;-62
2021/10/26 01:08:28;;;;;;;5.55;5.05;;;16.10;90.90;;;;;;4162000;28;20053;-62
2021/10/26 01:10:51;;;;;;;6.75;5.53;;;16.10;90.90;;;;;;4179399;28;20094;-62
2021/10/26 01:13:15;;;;;;;5.65;5.15;;;16.10;90.90;;;;;;4186077;28;20060;-63
2021/10/26 01:15:38;;;;;;;6.90;6.05;;;16.10;90.90;;;;;;4176691;28;20061;-62
2021/10/26 01:18:15;;;;;;;7.90;7.20;;;16.10;91.00;;;;;;4178137;28;20506;-62
2021/10/26 01:20:39;;;;;;;9.55;8.43;;;16.10;91.00;;;;;;4191585;28;20052;-62
2021/10/26 01:23:01;;;;;;;11.55;10.02;;;16.10;91.00;;;;;;4177507;28;20438;-62
2021/10/26 01:25:24;;;;;;;15.43;11.85;;;16.10;91.10;;;;;;4175151;28;20492;-62
2021/10/26 01:27:52;;;;;;;15.13;11.90;;;16.00;91.00;;;;;;4175148;28;20053;-62
2021/10/26 01:30:16;;;;;;;15.90;13.50;;;16.10;91.00;;;;;;4175218;28;20721;-63
2021/10/26 01:32:39;;;;;;;16.65;14.18;;;16.10;91.00;;;;;;4175261;28;20152;-62
2021/10/26 01:35:22;;;;;;;15.45;13.48;;;16.10;91.00;;;;;;4176509;28;20525;-61
2021/10/26 01:37:46;;;;;;;16.98;14.60;;;16.00;91.00;;;;;;4174890;28;20057;-62
2021/10/26 01:40:09;;;;;;;19.52;15.00;;;16.00;91.00;;;;;;4158491;28;20208;-62
2021/10/26 01:42:33;;;;;;;16.42;14.73;;;16.00;91.10;;;;;;4181834;28;20570;-62
2021/10/26 01:44:56;;;;;;;21.08;16.23;;;16.00;91.10;;;;;;4191558;28;20044;-62
2021/10/26 01:47:21;;;;;;;19.02;16.65;;;16.00;91.10;;;;;;4191451;28;20044;-62
2021/10/26 01:49:43;;;;;;;18.35;15.75;;;16.00;91.00;;;;;;4175241;28;20049;-62
2021/10/26 01:52:06;;;;;;;20.42;16.55;;;16.00;91.10;;;;;;4174811;28;20478;-62
2021/10/26 01:54:35;;;;;;;18.80;15.32;;;16.00;91.20;;;;;;4176085;28;20045;-62
2021/10/26 01:56:58;;;;;;;18.17;15.13;;;16.00;91.10;;;;;;4174335;28;20060;-62
2021/10/26 01:59:35;;;;;;;19.23;15.95;;;16.00;91.20;;;;;;4174303;28;20040;-62
2021/10/26 02:01:59;;;;;;;20.35;16.63;;;16.00;91.20;;;;;;4174700;28;20053;-62
2021/10/26 02:04:27;;;;;;;19.60;16.88;;;16.00;91.30;;;;;;4174511;28;20057;-62
2021/10/26 02:06:48;;;;;;;21.08;16.83;;;15.90;91.40;;;;;;4174555;28;20033;-62
2021/10/26 02:09:10;;;;;;;19.05;16.13;;;15.90;91.40;;;;;;4185170;28;20048;-62
2021/10/26 02:11:36;;;;;;;22.88;16.60;;;15.90;91.40;;;;;;4182054;28;20062;-63
2021/10/26 02:13:58;;;;;;;16.70;14.90;;;15.90;91.40;;;;;;4174617;28;20068;-62
2021/10/26 02:16:21;;;;;;;22.08;16.17;;;15.90;91.40;;;;;;4175597;28;20041;-63
2021/10/26 02:18:44;;;;;;;17.77;14.90;;;15.90;91.40;;;;;;4180549;28;20048;-62
2021/10/26 02:21:06;;;;;;;21.48;16.30;;;15.90;91.40;;;;;;4190814;28;20050;-62
2021/10/26 02:23:29;;;;;;;16.73;15.00;;;15.90;91.40;;;;;;4190646;28;20062;-63
2021/10/26 02:25:51;;;;;;;16.85;15.02;;;15.90;91.40;;;;;;4190540;28;20888;-62
2021/10/26 02:28:15;;;;;;;19.27;17.00;;;15.90;91.30;;;;;;4187906;28;20510;-62
2021/10/26 02:30:37;;;;;;;19.40;16.00;;;15.90;91.30;;;;;;4174255;28;20136;-62
2021/10/26 02:32:59;;;;;;;17.98;15.45;;;15.90;91.30;;;;;;4189450;28;20048;-62
2021/10/26 02:35:21;;;;;;;17.63;15.82;;;15.90;91.40;;;;;;4190757;28;20091;-62
2021/10/26 02:37:43;;;;;;;21.98;17.13;;;15.90;91.40;;;;;;4190829;28;20056;-62
2021/10/26 02:40:06;;;;;;;19.40;16.15;;;15.90;91.30;;;;;;4156974;28;20071;-63
2021/10/26 02:42:28;;;;;;;19.35;15.13;;;15.90;91.40;;;;;;4156604;28;20053;-63
2021/10/26 02:44:52;;;;;;;16.15;14.45;;;15.90;91.50;;;;;;4156405;28;20061;-62
2021/10/26 02:47:15;;;;;;;19.67;17.15;;;15.90;91.50;;;;;;4169597;28;20415;-62
2021/10/26 02:49:37;;;;;;;18.33;16.00;;;15.90;91.50;;;;;;4186663;28;20048;-62
2021/10/26 02:51:59;;;;;;;16.90;15.02;;;15.90;91.40;;;;;;4189382;28;20052;-62
2021/10/26 02:54:21;;;;;;;18.13;14.95;;;15.90;91.80;;;;;;4191945;28;20056;-63
2021/10/26 02:56:44;;;;;;;18.52;16.25;;;15.90;91.50;;;;;;4190339;28;20509;-62
2021/10/26 02:59:06;;;;;;;18.77;15.32;;;15.90;91.50;;;;;;4181833;28;20045;-62
2021/10/26 03:01:30;;;;;;;20.00;15.98;;;15.90;91.50;;;;;;4180224;28;20064;-62
2021/10/26 03:03:53;;;;;;;19.73;16.60;;;15.90;91.50;;;;;;4190245;28;20049;-62
2021/10/26 03:06:16;;;;;;;19.83;15.63;;;15.90;91.50;;;;;;4190057;28;20048;-62
2021/10/26 03:08:41;;;;;;;18.58;15.73;;;15.80;91.50;;;;;;4174439;28;20386;-62
2021/10/26 03:11:08;;;;;;;17.10;15.23;;;15.80;91.50;;;;;;4173526;28;20045;-61
2021/10/26 03:13:30;;;;;;;16.35;14.68;;;15.90;91.60;;;;;;4173514;28;20144;-62
2021/10/26 03:15:52;;;;;;;18.55;15.48;;;15.80;91.60;;;;;;4173396;28;20080;-62
2021/10/26 03:18:17;;;;;;;19.60;15.48;;;15.80;91.60;;;;;;4172808;28;20056;-63
2021/10/26 03:20:39;;;;;;;17.33;15.43;;;15.80;91.50;;;;;;4175239;28;20106;-62
2021/10/26 03:23:03;;;;;;;18.75;14.90;;;15.80;91.50;;;;;;4172922;28;20442;-61
2021/10/26 03:25:25;;;;;;;16.85;14.82;;;15.80;91.90;;;;;;4180551;28;20048;-62
2021/10/26 03:27:47;;;;;;;17.85;15.07;;;15.80;91.60;;;;;;4165809;28;20575;-62
2021/10/26 03:30:11;;;;;;;17.98;15.75;;;15.80;91.50;;;;;;4173432;28;20049;-62
2021/10/26 03:32:34;;;;;;;16.10;14.30;;;15.80;91.60;;;;;;4173417;28;20068;-62
2021/10/26 03:35:21;;;;;;;15.88;13.93;;;15.80;91.70;;;;;;4158418;28;20056;-62
2021/10/26 03:37:43;;;;;;;18.30;15.48;;;15.90;91.70;;;;;;4156742;28;20188;-63
2021/10/26 03:40:06;;;;;;;17.67;15.25;;;16.00;91.70;;;;;;4174206;28;20059;-62
2021/10/26 03:42:29;;;;;;;20.33;15.23;;;16.00;91.60;;;;;;4189650;28;20068;-62
2021/10/26 03:44:53;;;;;;;16.92;14.35;;;16.00;91.50;;;;;;4183189;28;20490;-62
2021/10/26 03:47:15;;;;;;;17.13;15.05;;;16.10;91.40;;;;;;4177018;28;20098;-62
2021/10/26 03:49:37;;;;;;;16.55;14.75;;;16.10;91.40;;;;;;4189698;28;20056;-62
2021/10/26 03:52:00;;;;;;;16.63;14.55;;;16.20;91.30;;;;;;4190958;28;20121;-62
2021/10/26 03:54:23;;;;;;;15.95;14.35;;;16.20;91.30;;;;;;4189555;28;20760;-62
2021/10/26 03:56:46;;;;;;;18.08;14.40;;;16.20;91.20;;;;;;4189947;28;20044;-62
2021/10/26 03:59:09;;;;;;;14.63;12.20;;;16.20;91.20;;;;;;4156620;28;20041;-61
2021/10/26 04:01:32;;;;;;;16.95;13.75;;;16.20;91.20;;;;;;4184793;28;20048;-61
2021/10/26 04:03:54;;;;;;;15.13;13.23;;;16.20;91.10;;;;;;4191135;28;20040;-62
2021/10/26 04:06:19;;;;;;;19.77;13.25;;;16.20;91.10;;;;;;4172972;28;20119;-62
2021/10/26 04:08:51;;;;;;;15.20;12.75;;;16.20;91.10;;;;;;4156630;28;20041;-62
2021/10/26 04:11:18;;;;;;;13.75;11.55;;;16.20;91.50;;;;;;4139937;28;20156;-62
2021/10/26 04:13:40;;;;;;;16.88;13.13;;;16.20;91.10;;;;;;4140544;28;20073;-62
2021/10/26 04:16:02;;;;;;;14.32;12.57;;;16.20;91.10;;;;;;4140355;28;20074;-63
2021/10/26 04:18:25;;;;;;;16.40;12.48;;;16.20;91.10;;;;;;4152713;28;20076;-63
2021/10/26 04:20:47;;;;;;;13.65;11.50;;;16.20;91.10;;;;;;4190862;28;20045;-62
2021/10/26 04:23:09;;;;;;;13.05;11.65;;;16.10;91.10;;;;;;4190775;28;20037;-62
2021/10/26 04:25:33;;;;;;;13.90;11.75;;;16.10;91.10;;;;;;4188892;28;20118;-62
2021/10/26 04:27:55;;;;;;;12.82;11.43;;;16.10;91.10;;;;;;4176412;28;20049;-63
2021/10/26 04:30:18;;;;;;;14.52;10.50;;;16.10;91.10;;;;;;4172529;28;20045;-62
2021/10/26 04:32:40;;;;;;;14.77;10.60;;;16.10;91.10;;;;;;4172844;28;20080;-62
2021/10/26 04:35:05;;;;;;;12.20;9.90;;;16.00;91.10;;;;;;4173136;28;20060;-62
2021/10/26 04:37:28;;;;;;;11.95;10.38;;;16.10;91.20;;;;;;4181822;28;20044;-62
2021/10/26 04:39:50;;;;;;;9.85;8.77;;;16.10;91.20;;;;;;4193833;28;20496;-61
2021/10/26 04:42:15;;;;;;;11.38;9.77;;;16.10;91.20;;;;;;4192419;28;20053;-62
2021/10/26 04:44:39;;;;;;;10.52;9.48;;;16.10;91.10;;;;;;4191922;28;20048;-62
2021/10/26 04:47:04;;;;;;;9.13;8.23;;;16.20;91.00;;;;;;4184470;28;20040;-62
2021/10/26 04:49:26;;;;;;;9.00;8.07;;;16.20;90.90;;;;;;4188524;28;20044;-62
2021/10/26 04:51:48;;;;;;;9.65;8.57;;;16.30;90.90;;;;;;4193886;28;20395;-61
2021/10/26 04:54:10;;;;;;;10.38;8.13;;;16.30;90.90;;;;;;4194008;28;20045;-62
2021/10/26 04:56:32;;;;;;;8.57;7.68;;;16.30;90.80;;;;;;4162327;28;20133;-62
2021/10/26 04:59:16;;;;;;;8.00;7.20;;;16.30;90.80;;;;;;4176686;28;20076;-62
2021/10/26 05:01:39;;;;;;;8.90;8.00;;;16.30;90.80;;;;;;4173516;28;20419;-62
2021/10/26 05:04:01;;;;;;;9.50;8.00;;;16.30;90.70;;;;;;4182259;28;20040;-62
2021/10/26 05:06:24;;;;;;;8.05;7.25;;;16.40;90.70;;;;;;4190819;28;20566;-63
2021/10/26 05:08:52;;;;;;;8.27;7.55;;;16.30;90.70;;;;;;4175728;28;20049;-62
2021/10/26 05:11:14;;;;;;;9.68;7.90;;;16.30;90.70;;;;;;4158919;28;20140;-62
2021/10/26 05:13:36;;;;;;;9.13;8.23;;;16.30;90.70;;;;;;4158657;28;20419;-62
2021/10/26 05:16:26;;;;;;;9.52;8.63;;;16.30;90.70;;;;;;4167660;28;20068;-62
2021/10/26 05:19:21;;;;;;;9.38;8.40;;;16.30;90.70;;;;;;4174951;28;20056;-63
2021/10/26 05:22:07;;;;;;;9.38;8.48;;;16.30;90.80;;;;;;4175565;28;20044;-62
2021/10/26 05:24:48;;;;;;;9.43;8.63;;;16.30;90.80;;;;;;4176955;28;20044;-62
2021/10/26 05:27:20;;;;;;;9.70;8.73;;;16.30;90.90;;;;;;4175219;28;20072;-62
2021/10/26 05:29:43;;;;;;;11.00;8.27;;;16.30;90.80;;;;;;4175373;28;20052;-62
2021/10/26 05:32:08;;;;;;;10.00;9.00;;;16.30;90.80;;;;;;4175432;28;20072;-61
2021/10/26 05:34:30;;;;;;;10.13;9.07;;;16.20;90.70;;;;;;4175134;28;20049;-62
2021/10/26 05:36:52;;;;;;;9.88;8.98;;;16.20;90.80;;;;;;4176324;28;20974;-62
2021/10/26 05:39:14;;;;;;;11.13;10.10;;;16.20;90.80;;;;;;4177151;28;20053;-62
2021/10/26 05:41:39;;;;;;;9.98;9.00;;;16.20;90.90;;;;;;4176657;28;20498;-62
2021/10/26 05:44:03;;;;;;;11.50;10.30;;;16.10;91.20;;;;;;4184955;28;20048;-61
2021/10/26 05:46:26;;;;;;;12.45;10.23;;;16.10;90.80;;;;;;4185779;28;20113;-59
2021/10/26 05:48:49;;;;;;;12.07;10.20;;;16.10;90.90;;;;;;4176494;28;20102;-61
2021/10/26 05:51:12;;;;;;;12.82;10.57;;;16.10;91.00;;;;;;4176580;28;20168;-62
2021/10/26 05:53:35;;;;;;;12.63;11.05;;;16.10;91.10;;;;;;4176384;28;20059;-61
2021/10/26 05:55:58;;;;;;;12.88;11.43;;;16.10;91.10;;;;;;4176167;28;20075;-62
2021/10/26 05:58:19;;;;;;;13.00;11.65;;;16.10;91.20;;;;;;4174700;28;20045;-62
2021/10/26 06:00:43;;;;;;;15.65;11.23;;;16.10;91.20;;;;;;4168786;28;20049;-61
2021/10/26 06:03:05;;;;;;;13.05;11.60;;;16.20;91.20;;;;;;4174384;28;20773;-62
2021/10/26 06:05:29;;;;;;;15.20;12.05;;;16.20;91.10;;;;;;4173507;28;20073;-61
2021/10/26 06:07:52;;;;;;;14.45;11.57;;;16.20;91.00;;;;;;4175935;28;20056;-62
2021/10/26 06:10:15;;;;;;;15.75;12.00;;;16.30;91.00;;;;;;4170841;28;20131;-61
2021/10/26 06:12:50;;;;;;;17.42;12.88;;;16.30;90.90;;;;;;4174789;28;20128;-62
2021/10/26 06:15:12;;;;;;;15.73;13.10;;;16.30;90.80;;;;;;4175707;28;20131;-61
2021/10/26 06:17:35;;;;;;;13.52;12.13;;;16.30;90.80;;;;;;4174442;28;20816;-62
2021/10/26 06:19:57;;;;;;;14.00;12.52;;;16.30;90.70;;;;;;4157320;28;20144;-61
2021/10/26 06:22:21;;;;;;;19.08;13.55;;;16.30;91.10;;;;;;4159477;28;20045;-62
2021/10/26 06:24:46;;;;;;;15.82;11.98;;;16.30;90.60;;;;;;4158401;28;20739;-62
2021/10/26 06:27:08;;;;;;;14.63;12.43;;;16.30;90.70;;;;;;4174304;28;20055;-63
2021/10/26 06:29:30;;;;;;;16.75;12.80;;;16.30;90.70;;;;;;4174689;28;20048;-62
2021/10/26 06:32:22;;;;;;;13.73;12.32;;;16.30;90.70;;;;;;4174219;28;20045;-63
2021/10/26 06:35:06;;;;;;;12.85;11.45;;;16.20;90.70;;;;;;4173924;28;20059;-62
2021/10/26 06:37:30;;;;;;;14.45;12.70;;;16.20;90.70;;;;;;4174113;28;20067;-62
2021/10/26 06:39:55;;;;;;;14.07;11.27;;;16.20;90.70;;;;;;4173504;28;20049;-62
2021/10/26 06:42:18;;;;;;;15.02;12.80;;;16.20;90.80;;;;;;4174135;28;20049;-63
2021/10/26 06:44:59;;;;;;;19.15;13.13;;;16.20;90.80;;;;;;4156162;28;20569;-64
2021/10/26 06:47:41;;;;;;;12.93;11.63;;;16.20;90.80;;;;;;4156855;28;20049;-62
2021/10/26 06:50:27;;;;;;;14.98;12.10;;;16.20;90.80;;;;;;4151279;28;20046;-61
2021/10/26 06:53:23;;;;;;;12.77;11.27;;;16.30;90.70;;;;;;4162042;28;20049;-59
2021/10/26 06:56:26;;;;;;;12.05;10.10;;;16.60;90.50;;;;;;4173786;28;20110;-60
2021/10/26 06:59:11;;;;;;;14.38;11.73;;;16.90;90.10;;;;;;4167920;28;20160;-59
2021/10/26 07:01:52;;;;;;;13.13;11.52;;;17.20;89.20;;;;;;4162822;28;20045;-60
2021/10/26 07:04:40;;;;;;;17.90;12.77;;;17.50;88.00;;;;;;4168232;28;20056;-58
2021/10/26 07:07:21;;;;;;;14.02;10.82;;;17.70;86.80;;;;;;4173911;28;20056;-59
2021/10/26 07:09:53;;;;;;;12.15;10.23;;;17.90;85.90;;;;;;4172550;28;20126;-59
2021/10/26 07:12:23;;;;;;;14.82;10.50;;;18.00;85.20;;;;;;4173087;28;20511;-59
2021/10/26 07:14:46;;;;;;;15.27;11.85;;;18.10;84.80;;;;;;4173727;28;20052;-59
2021/10/26 07:17:08;;;;;;;14.52;11.90;;;18.10;84.50;;;;;;4173460;28;20384;-60
2021/10/26 07:19:31;;;;;;;15.63;11.73;;;18.10;84.40;;;;;;4173420;28;20388;-59
2021/10/26 07:22:12;;;;;;;13.27;10.52;;;18.10;84.50;;;;;;4170578;28;20053;-60
2021/10/26 07:24:38;;;;;;;15.70;12.23;;;18.00;84.70;;;;;;4174721;28;20052;-60
2021/10/26 07:27:05;;;;;;;16.02;12.60;;;17.90;84.80;;;;;;4172083;28;20102;-59
2021/10/26 07:29:28;;;;;;;17.17;11.85;;;17.80;85.00;;;;;;4173113;28;20049;-60
2021/10/26 07:31:50;;;;;;;17.38;11.90;;;17.80;85.50;;;;;;4172233;28;20400;-60
2021/10/26 07:34:13;;;;;;;15.02;11.07;;;17.80;85.60;;;;;;4173139;28;20053;-62
2021/10/26 07:36:41;;;;;;;17.45;12.18;;;17.80;85.40;;;;;;4167482;28;20518;-59
2021/10/26 07:39:07;;;;;;;15.43;11.52;;;17.90;85.20;;;;;;4170137;28;20524;-60
2021/10/26 07:41:30;;;;;;;12.65;11.25;;;17.90;85.30;;;;;;4175009;28;20068;-60
2021/10/26 07:44:29;;;;;;;16.67;11.75;;;17.90;85.30;;;;;;4174494;28;20053;-60
2021/10/26 07:46:59;;;;;;;14.93;11.02;;;17.80;85.30;;;;;;4173207;28;20061;-60
2021/10/26 07:49:23;;;;;;;14.63;11.30;;;17.80;85.40;;;;;;4172451;28;20245;-59
2021/10/26 07:51:45;;;;;;;14.77;11.30;;;17.80;85.60;;;;;;4173564;28;20099;-60
2021/10/26 07:54:08;;;;;;;14.07;11.60;;;17.70;85.70;;;;;;4172856;28;20141;-59
2021/10/26 07:56:30;;;;;;;15.38;11.93;;;17.80;85.80;;;;;;4174144;28;20049;-59
2021/10/26 07:58:52;;;;;;;16.08;11.57;;;17.80;85.60;;;;;;4173219;28;20044;-60
2021/10/26 08:01:16;;;;;;;14.75;11.05;;;17.80;85.50;;;;;;4174692;28;20048;-60
2021/10/26 08:04:14;;;;;;;14.85;11.15;;;17.80;85.40;;;;;;4171035;28;20049;-60
2021/10/26 08:06:43;;;;;;;16.15;11.88;;;17.80;85.50;;;;;;4172577;28;20095;-58
2021/10/26 08:09:05;;;;;;;14.65;11.05;;;17.80;85.50;;;;;;4173447;28;20044;-63
2021/10/26 08:11:29;;;;;;;19.90;11.88;;;17.80;85.60;;;;;;4172754;28;20045;-59
2021/10/26 08:13:52;;;;;;;12.32;10.40;;;17.70;85.70;;;;;;4175615;28;20053;-59
2021/10/26 08:16:18;;;;;;;13.68;12.05;;;17.70;86.00;;;;;;4176205;28;20122;-59
2021/10/26 08:18:41;;;;;;;13.95;10.82;;;17.70;86.20;;;;;;4176755;28;20565;-59
2021/10/26 08:21:04;;;;;;;13.98;11.52;;;17.70;86.40;;;;;;4176287;28;20056;-59
2021/10/26 08:23:26;;;;;;;15.32;11.38;;;17.70;86.20;;;;;;4160030;28;20069;-59
2021/10/26 08:25:57;;;;;;;12.50;10.90;;;17.80;86.10;;;;;;4159638;28;20045;-60
2021/10/26 08:28:19;;;;;;;16.60;11.23;;;17.80;85.80;;;;;;4159947;28;20676;-59
2021/10/26 08:30:48;;;;;;;14.27;11.68;;;17.80;85.70;;;;;;4159684;28;20136;-59
2021/10/26 08:33:25;;;;;;;13.68;10.75;;;17.80;85.70;;;;;;4174549;28;20151;-59
2021/10/26 08:35:47;;;;;;;17.75;11.48;;;17.80;85.60;;;;;;4159816;28;20048;-59
2021/10/26 08:38:09;;;;;;;14.77;11.10;;;17.80;85.60;;;;;;4159490;28;20056;-59
2021/10/26 08:40:47;;;;;;;15.20;11.25;;;17.80;85.70;;;;;;4159427;28;20135;-59
2021/10/26 08:43:10;;;;;;;12.48;10.35;;;17.80;85.80;;;;;;4159612;28;20041;-60
2021/10/26 08:45:34;;;;;;;14.35;11.55;;;17.80;86.00;;;;;;4164146;28;20045;-59
2021/10/26 08:48:00;;;;;;;13.55;10.95;;;17.70;85.90;;;;;;4176293;28;20499;-60
2021/10/26 08:50:46;;;;;;;14.98;10.25;;;17.70;86.20;;;;;;4177169;28;20045;-60
2021/10/26 08:53:09;;;;;;;13.98;10.32;;;17.60;86.40;;;;;;4175647;28;20053;-60
2021/10/26 08:56:05;;;;;;;11.45;9.98;;;17.60;86.60;;;;;;4175611;28;20517;-60
2021/10/26 08:58:32;;;;;;;10.48;9.00;;;17.60;86.60;;;;;;4176740;28;20041;-60
2021/10/26 09:00:54;;;;;;;13.95;9.60;;;17.60;86.50;;;;;;4175889;28;20053;-59
2021/10/26 09:03:18;;;;;;;12.27;9.95;;;17.60;86.50;;;;;;4175515;28;20139;-58
2021/10/26 09:05:47;;;;;;;11.75;8.63;;;17.60;86.50;;;;;;4175937;28;20129;-59
2021/10/26 09:08:11;;;;;;;14.13;9.60;;;17.70;86.60;;;;;;4175707;28;20053;-59
2021/10/26 09:10:37;;;;;;;10.38;9.30;;;17.60;86.70;;;;;;4175261;28;20052;-59
2021/10/26 09:16:44;;;;;;;10.13;8.55;;;17.60;86.80;;;;;;4165797;28;20044;-59
2021/10/26 09:19:27;;;;;;;13.23;8.60;;;17.60;86.90;;;;;;4176720;28;20060;-59
2021/10/26 09:21:58;;;;;;;10.23;7.72;;;17.50;87.20;;;;;;4158843;28;20057;-59
2021/10/26 09:24:20;;;;;;;12.73;8.00;;;17.50;87.10;;;;;;4178606;28;20121;-59
2021/10/26 09:26:47;;;;;;;10.40;7.40;;;17.50;87.30;;;;;;4179156;28;20044;-59
2021/10/26 09:29:10;;;;;;;10.52;7.43;;;17.50;87.40;;;;;;4188493;28;20052;-59
2021/10/26 09:31:32;;;;;;;12.68;6.90;;;17.50;87.30;;;;;;4192466;28;20052;-59
2021/10/26 09:34:05;;;;;;;10.93;7.60;;;17.50;87.30;;;;;;4161534;28;20052;-59
2021/10/26 09:36:29;;;;;;;9.82;6.82;;;17.60;87.20;;;;;;4177553;28;20048;-59
2021/10/26 09:39:13;;;;;;;12.18;7.47;;;17.60;87.10;;;;;;4192933;28;20494;-59
2021/10/26 09:41:37;;;;;;;10.25;7.32;;;17.60;86.90;;;;;;4185775;28;20067;-59
2021/10/26 09:44:11;;;;;;;13.45;6.97;;;17.60;87.30;;;;;;4176512;28;20051;-59
2021/10/26 09:46:33;;;;;;;11.75;7.38;;;17.60;87.00;;;;;;4185759;28;20247;-59
2021/10/26 09:48:56;;;;;;;11.10;7.20;;;17.50;87.20;;;;;;4184173;28;20503;-59
2021/10/26 09:51:21;;;;;;;7.80;6.25;;;17.50;88.10;;;;;;4174446;28;20045;-59
2021/10/26 09:53:55;;;;;;;13.10;6.47;;;17.60;87.30;;;;;;4175695;28;20085;-59
2021/10/26 09:56:19;;;;;;;10.55;6.75;;;17.70;86.90;;;;;;4174396;28;20048;-60
2021/10/26 09:59:13;;;;;;;9.15;6.40;;;17.70;86.80;;;;;;4159891;28;20050;-59
2021/10/26 10:01:36;;;;;;;9.32;5.63;;;17.80;86.20;;;;;;4171580;28;20520;-60
2021/10/26 10:04:03;;;;;;;7.57;5.93;;;17.90;86.10;;;;;;4174600;28;20068;-60
2021/10/26 10:06:50;;;;;;;12.13;6.55;;;17.90;85.90;;;;;;4175054;28;20049;-60
2021/10/26 10:09:20;;;;;;;10.27;6.07;;;18.00;85.50;;;;;;4171218;28;20049;-59
2021/10/26 10:12:01;;;;;;;11.45;6.82;;;17.90;85.80;;;;;;4174742;28;20049;-60
2021/10/26 10:14:23;;;;;;;8.32;5.93;;;17.90;85.90;;;;;;4175892;28;20041;-60
2021/10/26 10:16:46;;;;;;;9.98;6.35;;;17.80;86.10;;;;;;4176053;28;20049;-60
2021/10/26 10:19:08;;;;;;;10.85;6.95;;;17.80;86.20;;;;;;4159472;28;20095;-59
2021/10/26 10:21:31;;;;;;;11.00;7.15;;;17.80;86.40;;;;;;4161334;28;20488;-60
2021/10/26 10:23:56;;;;;;;12.80;7.63;;;17.80;86.50;;;;;;4175461;28;20053;-60
2021/10/26 10:26:23;;;;;;;12.50;8.10;;;17.80;86.60;;;;;;4175169;28;20053;-60
2021/10/26 10:28:49;;;;;;;10.68;7.25;;;17.70;86.90;;;;;;4175536;28;20099;-60
2021/10/26 10:31:13;;;;;;;13.13;7.70;;;17.70;86.80;;;;;;4175750;28;20064;-59
2021/10/26 10:33:35;;;;;;;11.05;7.53;;;17.70;87.10;;;;;;4175633;28;20053;-60
2021/10/26 10:35:59;;;;;;;14.07;8.68;;;17.60;87.10;;;;;;4175204;28;20048;-60
2021/10/26 10:38:25;;;;;;;13.60;7.75;;;17.60;87.10;;;;;;4175145;28;20388;-60
2021/10/26 10:40:48;;;;;;;14.00;7.47;;;17.60;87.40;;;;;;4175397;28;20472;-60
2021/10/26 10:43:10;;;;;;;13.88;8.25;;;17.50;87.60;;;;;;4175874;28;20052;-59
2021/10/26 10:45:35;;;;;;;19.67;9.27;;;17.50;87.70;;;;;;4175418;28;20135;-60
2021/10/26 10:47:58;;;;;;;14.80;8.27;;;17.50;87.70;;;;;;4175501;28;20041;-60
2021/10/26 10:50:31;;;;;;;13.27;9.25;;;17.40;87.90;;;;;;4175340;28;20064;-60
2021/10/26 10:53:09;;;;;;;12.93;7.90;;;17.40;87.90;;;;;;4174589;28;20071;-60
2021/10/26 10:55:32;;;;;;;11.43;9.05;;;17.30;87.90;;;;;;4174869;28;20128;-60
2021/10/26 10:57:55;;;;;;;11.65;8.75;;;17.30;88.10;;;;;;4174971;28;20123;-60
2021/10/26 11:00:22;;;;;;;16.50;9.30;;;17.30;88.40;;;;;;4174215;28;20140;-59
2021/10/26 11:02:48;;;;;;;16.73;10.02;;;17.20;88.40;;;;;;4174507;28;20502;-59
2021/10/26 11:05:41;;;;;;;18.25;12.68;;;17.20;88.60;;;;;;4158694;28;20176;-60
2021/10/26 11:08:04;;;;;;;16.33;10.00;;;17.20;88.70;;;;;;4173347;28;20048;-60
2021/10/26 11:10:59;;;;;;;15.65;9.15;;;17.20;88.90;;;;;;4175185;28;20144;-60
2021/10/26 11:13:23;;;;;;;14.27;10.20;;;17.20;89.00;;;;;;4158100;28;20053;-59
2021/10/26 11:15:49;;;;;;;17.58;11.02;;;17.10;89.20;;;;;;4166960;28;20555;-59
2021/10/26 11:18:37;;;;;;;14.50;8.88;;;17.10;89.20;;;;;;4174678;28;20076;-59
2021/10/26 11:21:01;;;;;;;14.98;8.60;;;17.10;89.40;;;;;;4165442;28;20762;-59
2021/10/26 11:23:44;;;;;;;12.07;7.78;;;17.10;89.60;;;;;;4174164;28;20048;-60
2021/10/26 11:26:15;;;;;;;15.30;8.93;;;17.10;89.50;;;;;;4167555;28;20131;-59
2021/10/26 11:28:46;;;;;;;17.33;11.38;;;17.20;89.50;;;;;;4175250;28;20059;-59
2021/10/26 11:31:13;;;;;;;12.65;9.07;;;17.30;89.40;;;;;;4174122;28;20041;-60
2021/10/26 11:33:40;;;;;;;11.68;7.63;;;17.30;89.20;;;;;;4154675;28;20168;-59
2021/10/26 11:36:05;;;;;;;19.88;13.43;;;17.30;89.10;;;;;;4141867;28;20487;-61
2021/10/26 11:38:30;;;;;;;13.85;9.43;;;17.40;89.20;;;;;;4173422;28;20049;-60
2021/10/26 11:40:53;;;;;;;13.98;9.40;;;17.40;89.90;;;;;;4174609;28;20043;-60
2021/10/26 11:43:16;;;;;;;16.13;11.20;;;17.50;89.10;;;;;;4174733;28;20098;-60
2021/10/26 11:45:39;;;;;;;13.30;7.97;;;17.50;89.00;;;;;;4174526;28;20052;-62
2021/10/26 11:48:00;;;;;;;9.10;6.85;;;17.50;89.10;;;;;;4173596;28;20045;-61
2021/10/26 11:50:24;;;;;;;11.57;8.32;;;17.50;89.00;;;;;;4174578;28;20053;-62
2021/10/26 11:52:46;;;;;;;10.23;5.53;;;17.50;89.00;;;;;;4174557;28;20067;-61
2021/10/26 11:55:09;;;;;;;9.10;5.60;;;17.50;89.00;;;;;;4173407;28;20045;-62
2021/10/26 11:57:31;;;;;;;9.95;6.00;;;17.50;89.00;;;;;;4173219;28;20045;-60
2021/10/26 12:00:10;;;;;;;10.38;6.63;;;17.40;89.00;;;;;;4172532;28;20041;-60
2021/10/26 12:02:35;;;;;;;8.88;5.72;;;17.40;88.90;;;;;;4172804;28;21242;-58
2021/10/26 12:05:17;;;;;;;8.52;5.50;;;17.40;89.00;;;;;;4164840;28;20057;-58
2021/10/26 12:07:49;;;;;;;8.63;6.50;;;17.30;89.10;;;;;;4173474;28;20088;-61
2021/10/26 12:10:11;;;;;;;7.03;4.75;;;17.30;89.00;;;;;;4174096;28;20052;-58
2021/10/26 12:12:35;;;;;;;10.63;6.68;;;17.30;89.10;;;;;;4174513;28;20067;-59
2021/10/26 12:15:02;;;;;;;6.18;4.40;;;17.30;89.30;;;;;;4172431;28;20053;-60
2021/10/26 12:17:27;;;;;;;13.38;5.55;;;17.20;89.20;;;;;;4174774;28;20045;-60
2021/10/26 12:19:59;;;;;;;10.05;5.20;;;17.20;90.00;;;;;;4174411;28;20133;-59
2021/10/26 12:22:28;;;;;;;8.93;5.10;;;17.20;89.00;;;;;;4172028;28;20049;-60
2021/10/26 12:24:55;;;;;;;10.73;5.07;;;17.20;89.40;;;;;;4171561;28;20045;-59
2021/10/26 12:27:28;;;;;;;8.35;5.20;;;17.20;89.50;;;;;;4174307;28;20049;-60
2021/10/26 12:29:51;;;;;;;8.73;5.28;;;17.10;89.40;;;;;;4174001;28;20053;-60
2021/10/26 12:32:13;;;;;;;8.43;5.47;;;17.10;89.60;;;;;;4166935;28;20045;-59
2021/10/26 12:34:36;;;;;;;7.97;5.35;;;17.10;90.10;;;;;;4172901;28;20049;-59